Terminal Aerodrome Forecast
Issued by NWS

Current Version | Previous Version | Text Only | Print | Product List | Glossary On
Versions: 1 2 3 4 5 6 7 8 9 10 11 12 13 14 15 16 17 18 19 20 21 22 23 24 25 26
000 FTUS41 KOKX 231745 CCA TAFHPN TAF COR KHPN 231745Z 2318/2418 30008KT P6SM SKC FM232300 VRB03KT P6SM SCT120 BKN250 FM241400 19008KT P6SM OVC080 TEMPO 2415/2418 6SM -RASNPL BKN050 AMD NOT SKED=

USA.gov is the U.S. government's official web portal to all federal, state and local government web resources and services.